createdAt,value
2022-12-01T00:00:07.248Z,1018.73
2022-12-01T00:01:07.208Z,1018.76
2022-12-01T00:02:07.278Z,1018.74
2022-12-01T00:03:07.361Z,1018.76
2022-12-01T00:04:07.112Z,1018.73
2022-12-01T00:05:07.090Z,1018.73
2022-12-01T00:06:07.056Z,1018.70
2022-12-01T00:07:07.032Z,1018.73
2022-12-01T00:08:07.054Z,1018.71
2022-12-01T00:09:06.975Z,1018.73
2022-12-01T00:10:06.940Z,1018.76
2022-12-01T00:11:06.936Z,1018.77
2022-12-01T00:12:06.886Z,1018.73
2022-12-01T00:13:06.858Z,1018.74
2022-12-01T00:14:06.828Z,1018.80
2022-12-01T00:15:06.804Z,1018.75
2022-12-01T00:16:06.850Z,1018.75
2022-12-01T00:17:06.750Z,1018.75
2022-12-01T00:18:06.715Z,1018.77
2022-12-01T00:19:06.685Z,1018.77
2022-12-01T00:20:06.658Z,1018.76
2022-12-01T00:21:06.629Z,1018.77
2022-12-01T00:22:06.600Z,1018.75
2022-12-01T00:23:06.575Z,1018.80
2022-12-01T00:24:06.548Z,1018.75
2022-12-01T00:25:06.515Z,1018.75
2022-12-01T00:26:06.489Z,1018.73
2022-12-01T00:27:06.455Z,1018.70
2022-12-01T00:28:06.431Z,1018.68
2022-12-01T00:29:06.402Z,1018.73
2022-12-01T00:30:06.375Z,1018.75
2022-12-01T00:31:06.348Z,1018.73
2022-12-01T00:32:06.364Z,1018.76
2022-12-01T00:33:06.289Z,1018.77
2022-12-01T00:34:11.028Z,1018.68
2022-12-01T00:35:06.226Z,1018.65
2022-12-01T00:36:06.196Z,1018.68
2022-12-01T00:37:06.178Z,1018.72
2022-12-01T00:38:06.138Z,1018.71
2022-12-01T00:39:06.115Z,1018.68
2022-12-01T00:40:06.088Z,1018.65
2022-12-01T00:41:06.053Z,1018.69
2022-12-01T00:42:11.602Z,1018.70
2022-12-01T00:43:05.999Z,1018.66
2022-12-01T00:44:05.972Z,1018.70
2022-12-01T00:45:05.947Z,1018.69
2022-12-01T00:46:05.966Z,1018.70
2022-12-01T00:47:05.882Z,1018.65
2022-12-01T00:48:05.882Z,1018.68
2022-12-01T00:49:05.826Z,1018.69
2022-12-01T00:50:05.807Z,1018.68
2022-12-01T00:51:05.768Z,1018.66
2022-12-01T00:52:05.740Z,1018.66
2022-12-01T00:53:05.710Z,1018.68
2022-12-01T00:54:05.686Z,1018.66
2022-12-01T00:55:05.653Z,1018.71
2022-12-01T00:56:05.629Z,1018.70
2022-12-01T00:57:05.597Z,1018.72
2022-12-01T00:58:05.569Z,1018.67
2022-12-01T00:59:05.539Z,1018.73
2022-12-01T01:00:05.513Z,1018.75
2022-12-01T01:01:05.606Z,1018.75
2022-12-01T01:02:05.530Z,1018.77
2022-12-01T01:03:05.423Z,1018.76
2022-12-01T01:04:05.416Z,1018.79
2022-12-01T01:05:05.366Z,1018.77
2022-12-01T01:06:05.339Z,1018.77
2022-12-01T01:07:05.308Z,1018.78
2022-12-01T01:08:05.377Z,1018.76
2022-12-01T01:09:05.250Z,1018.77
2022-12-01T01:10:05.223Z,1018.77
2022-12-01T01:11:05.195Z,1018.82
2022-12-01T01:12:05.173Z,1018.80
2022-12-01T01:13:05.135Z,1018.83
2022-12-01T01:14:05.109Z,1018.81
2022-12-01T01:15:05.079Z,1018.84
2022-12-01T01:16:05.055Z,1018.79
2022-12-01T01:17:05.180Z,1018.82
2022-12-01T01:18:04.992Z,1018.80
2022-12-01T01:19:04.962Z,1018.85
2022-12-01T01:20:04.952Z,1018.83
2022-12-01T01:21:04.905Z,1018.84
2022-12-01T01:22:04.879Z,1018.78
2022-12-01T01:23:04.843Z,1018.81
2022-12-01T01:24:04.817Z,1018.79
2022-12-01T01:25:04.790Z,1018.86
2022-12-01T01:26:04.762Z,1018.87
2022-12-01T01:27:04.731Z,1018.85
2022-12-01T01:28:04.703Z,1018.84
2022-12-01T01:29:04.672Z,1018.85
2022-12-01T01:30:04.645Z,1018.90
2022-12-01T01:31:04.720Z,1018.85
2022-12-01T01:32:04.586Z,1018.89
2022-12-01T01:33:04.555Z,1018.90
2022-12-01T01:34:04.528Z,1018.88
2022-12-01T01:35:04.498Z,1018.92
2022-12-01T01:36:04.503Z,1018.90
2022-12-01T01:37:04.440Z,1018.92
2022-12-01T01:38:04.414Z,1018.96
2022-12-01T01:39:04.390Z,1018.96
2022-12-01T01:40:04.353Z,1018.93
2022-12-01T01:41:04.324Z,1018.97
2022-12-01T01:42:04.299Z,1018.97
2022-12-01T01:43:04.267Z,1018.95
2022-12-01T01:44:04.241Z,1018.95
2022-12-01T01:45:04.207Z,1018.95
2022-12-01T01:46:04.207Z,1018.91
2022-12-01T01:47:04.153Z,1018.91
2022-12-01T01:48:04.123Z,1018.94
2022-12-01T01:49:04.097Z,1018.92
2022-12-01T01:50:04.068Z,1018.99
2022-12-01T01:51:04.037Z,1018.93
2022-12-01T01:52:04.025Z,1018.93
2022-12-01T01:53:03.979Z,1018.93
2022-12-01T01:54:03.954Z,1018.97
2022-12-01T01:55:03.920Z,1018.95
2022-12-01T01:56:03.899Z,1018.96
2022-12-01T01:57:03.864Z,1018.94
2022-12-01T01:58:03.835Z,1018.89
2022-12-01T01:59:03.805Z,1018.91
2022-12-01T02:00:03.781Z,1018.94
2022-12-01T02:01:03.851Z,1018.97
2022-12-01T02:02:03.768Z,1018.90
2022-12-01T02:03:03.690Z,1018.90
2022-12-01T02:04:03.663Z,1018.91
2022-12-01T02:05:03.636Z,1018.91
2022-12-01T02:06:05.126Z,1018.96
2022-12-01T02:07:03.575Z,1018.96
2022-12-01T02:08:03.610Z,1018.91
2022-12-01T02:09:03.518Z,1018.91
2022-12-01T02:10:03.490Z,1018.87
2022-12-01T02:11:03.457Z,1018.88
2022-12-01T02:12:03.436Z,1018.91
2022-12-01T02:13:03.401Z,1018.92
2022-12-01T02:14:03.375Z,1018.93
2022-12-01T02:15:03.349Z,1018.96
2022-12-01T02:16:03.316Z,1018.95
2022-12-01T02:17:03.367Z,1018.98
2022-12-01T02:18:03.259Z,1018.98
2022-12-01T02:19:03.226Z,1018.96
2022-12-01T02:20:03.201Z,1018.96
2022-12-01T02:21:03.176Z,1018.95
2022-12-01T02:22:03.146Z,1018.98
2022-12-01T02:23:03.113Z,1018.93
2022-12-01T02:24:03.111Z,1018.94
2022-12-01T02:25:03.054Z,1018.90
2022-12-01T02:26:03.031Z,1018.94
2022-12-01T02:27:02.999Z,1018.94
2022-12-01T02:28:02.970Z,1018.93
2022-12-01T02:29:02.940Z,1018.95
2022-12-01T02:30:02.924Z,1018.94
2022-12-01T02:31:02.906Z,1018.93
2022-12-01T02:32:02.854Z,1018.93
2022-12-01T02:33:02.824Z,1018.95
2022-12-01T02:34:02.801Z,1018.92
2022-12-01T02:35:02.765Z,1018.88
2022-12-01T02:36:02.739Z,1018.90
2022-12-01T02:37:02.711Z,1018.87
2022-12-01T02:38:02.678Z,1018.89
2022-12-01T02:39:02.649Z,1018.87
2022-12-01T02:40:02.642Z,1018.90
2022-12-01T02:41:02.593Z,1018.90
2022-12-01T02:42:02.565Z,1018.85
2022-12-01T02:43:02.537Z,1018.90
2022-12-01T02:44:02.511Z,1018.93
2022-12-01T02:45:02.481Z,1018.94
2022-12-01T02:46:02.511Z,1018.93
2022-12-01T02:47:02.423Z,1018.92
2022-12-01T02:48:02.398Z,1018.90
2022-12-01T02:49:02.363Z,1018.91
2022-12-01T02:50:02.338Z,1018.90
2022-12-01T02:51:02.320Z,1018.91
2022-12-01T02:52:02.285Z,1018.88
2022-12-01T02:53:02.249Z,1018.91
2022-12-01T02:54:02.226Z,1018.93
2022-12-01T02:55:02.193Z,1018.87
2022-12-01T02:56:02.225Z,1018.88
2022-12-01T02:57:02.133Z,1018.90
2022-12-01T02:58:02.107Z,1018.83
2022-12-01T02:59:02.076Z,1018.88
2022-12-01T03:00:02.050Z,1018.87
2022-12-01T03:01:02.096Z,1018.89
2022-12-01T03:02:02.007Z,1018.84
2022-12-01T03:03:02.027Z,1018.85
2022-12-01T03:04:01.934Z,1018.88
2022-12-01T03:05:01.905Z,1018.85
2022-12-01T03:06:01.881Z,1018.86
2022-12-01T03:07:01.869Z,1018.90
2022-12-01T03:08:01.941Z,1018.86
2022-12-01T03:09:01.790Z,1018.84
2022-12-01T03:10:01.777Z,1018.89
2022-12-01T03:11:01.730Z,1018.89
2022-12-01T03:12:01.728Z,1018.90
2022-12-01T03:13:01.675Z,1018.88
2022-12-01T03:14:01.647Z,1018.91
2022-12-01T03:15:01.617Z,1018.92
2022-12-01T03:16:01.691Z,1018.89
2022-12-01T03:17:01.560Z,1018.86
2022-12-01T03:18:01.534Z,1018.88
2022-12-01T03:19:01.505Z,1018.86
2022-12-01T03:20:01.479Z,1018.87
2022-12-01T03:21:01.451Z,1018.89
2022-12-01T03:22:01.418Z,1018.83
2022-12-01T03:23:01.389Z,1018.91
2022-12-01T03:24:01.363Z,1018.86
2022-12-01T03:25:01.339Z,1018.82
2022-12-01T03:26:01.306Z,1018.86
2022-12-01T03:27:01.275Z,1018.78
2022-12-01T03:28:20.834Z,1018.81
2022-12-01T03:29:01.216Z,1018.81
2022-12-01T03:30:01.187Z,1018.81
2022-12-01T03:31:01.179Z,1018.79
2022-12-01T03:32:01.128Z,1018.78
2022-12-01T03:33:01.100Z,1018.82
2022-12-01T03:34:01.072Z,1018.82
2022-12-01T03:35:01.054Z,1018.79
2022-12-01T03:36:01.043Z,1018.78
2022-12-01T03:37:00.984Z,1018.78
2022-12-01T03:38:00.959Z,1018.74
2022-12-01T03:39:00.926Z,1018.78
2022-12-01T03:40:01.408Z,1018.77
2022-12-01T03:41:00.871Z,1018.80
2022-12-01T03:42:00.846Z,1018.80
2022-12-01T03:43:00.809Z,1018.80
2022-12-01T03:44:00.806Z,1018.84
2022-12-01T03:45:00.754Z,1018.80
2022-12-01T03:46:00.816Z,1018.78
2022-12-01T03:47:00.697Z,1018.79
2022-12-01T03:48:00.670Z,1018.83
2022-12-01T03:49:00.711Z,1018.82
2022-12-01T03:50:00.608Z,1018.90
2022-12-01T03:51:00.581Z,1018.85
2022-12-01T03:52:00.553Z,1018.84
2022-12-01T03:53:00.535Z,1018.84
2022-12-01T03:54:00.497Z,1018.84
2022-12-01T03:55:00.463Z,1018.90
2022-12-01T03:56:00.435Z,1018.87
2022-12-01T03:57:00.409Z,1018.92
2022-12-01T03:58:00.381Z,1018.95
2022-12-01T03:59:00.347Z,1018.97
2022-12-01T04:00:00.342Z,1018.95
2022-12-01T04:01:00.290Z,1018.94
2022-12-01T04:02:00.381Z,1018.98
2022-12-01T04:03:00.338Z,1018.96
2022-12-01T04:04:00.204Z,1019.00
2022-12-01T04:05:00.180Z,1018.93
2022-12-01T04:06:00.153Z,1018.97
2022-12-01T04:07:00.114Z,1018.95
2022-12-01T04:08:00.217Z,1018.96
2022-12-01T04:09:00.070Z,1018.97
2022-12-01T04:10:00.036Z,1018.99
2022-12-01T04:11:00.004Z,1019.05
2022-12-01T04:11:59.975Z,1019.03
2022-12-01T04:12:59.943Z,1019.02
2022-12-01T04:13:59.915Z,1019.01
2022-12-01T04:14:59.885Z,1019.01
2022-12-01T04:15:59.944Z,1019.05
2022-12-01T04:16:59.829Z,1019.04
2022-12-01T04:17:59.799Z,1019.00
2022-12-01T04:18:59.769Z,1019.06
2022-12-01T04:19:59.782Z,1019.05
2022-12-01T04:20:59.711Z,1019.05
2022-12-01T04:21:59.686Z,1019.08
2022-12-01T04:22:59.652Z,1019.05
2022-12-01T04:23:59.624Z,1019.07
2022-12-01T04:24:59.594Z,1019.02
2022-12-01T04:25:59.566Z,1019.05
2022-12-01T04:26:59.576Z,1019.05
2022-12-01T04:27:59.508Z,1019.07
2022-12-01T04:28:59.478Z,1019.06
2022-12-01T04:29:59.450Z,1019.10
2022-12-01T04:30:59.471Z,1019.07
2022-12-01T04:31:59.433Z,1019.09
2022-12-01T04:32:59.416Z,1019.08
2022-12-01T04:33:59.334Z,1019.08
2022-12-01T04:34:59.302Z,1019.05
2022-12-01T04:35:59.276Z,1019.04
2022-12-01T04:36:59.247Z,1019.03
2022-12-01T04:37:59.218Z,1019.00
2022-12-01T04:38:59.204Z,1019.02
2022-12-01T04:39:59.161Z,1018.97
2022-12-01T04:40:59.131Z,1019.00
2022-12-01T04:41:59.105Z,1019.00
2022-12-01T04:42:59.073Z,1019.00
2022-12-01T04:43:59.048Z,1018.99
2022-12-01T04:44:59.017Z,1018.97
2022-12-01T04:45:58.986Z,1018.96
2022-12-01T04:46:59.025Z,1018.99
2022-12-01T04:47:58.947Z,1018.95
2022-12-01T04:48:58.899Z,1018.96
2022-12-01T04:49:58.874Z,1018.93
2022-12-01T04:50:58.841Z,1018.96
2022-12-01T04:51:58.813Z,1018.92
2022-12-01T04:52:58.785Z,1018.93
2022-12-01T04:53:58.756Z,1018.89
2022-12-01T04:54:58.722Z,1018.91
2022-12-01T04:55:58.695Z,1018.89
2022-12-01T04:56:58.667Z,1018.87
2022-12-01T04:57:58.715Z,1018.92
2022-12-01T04:58:58.611Z,1018.91
2022-12-01T04:59:58.579Z,1018.92
2022-12-01T05:00:58.600Z,1018.92
2022-12-01T05:01:58.662Z,1018.95
2022-12-01T05:02:58.492Z,1018.95
2022-12-01T05:03:58.491Z,1018.93
2022-12-01T05:04:58.435Z,1018.93
2022-12-01T05:05:58.408Z,1018.98
2022-12-01T05:06:58.374Z,1019.00
2022-12-01T05:07:58.441Z,1018.99
2022-12-01T05:08:58.320Z,1019.00
2022-12-01T05:09:58.289Z,1019.00
2022-12-01T05:10:58.263Z,1019.00
2022-12-01T05:11:58.234Z,1018.98
2022-12-01T05:12:58.203Z,1018.99
2022-12-01T05:13:58.172Z,1018.93
2022-12-01T05:14:58.145Z,1018.96
2022-12-01T05:15:58.165Z,1018.94
2022-12-01T05:16:58.087Z,1018.93
2022-12-01T05:17:58.055Z,1018.98
2022-12-01T05:18:58.084Z,1018.96
2022-12-01T05:19:58.012Z,1018.96
2022-12-01T05:20:57.976Z,1018.98
2022-12-01T05:21:57.943Z,1018.96
2022-12-01T05:23:05.462Z,1018.99
2022-12-01T05:23:57.881Z,1018.96
2022-12-01T05:24:57.856Z,1018.97
2022-12-01T05:25:57.822Z,1018.95
2022-12-01T05:26:57.799Z,1019.02
2022-12-01T05:27:57.768Z,1018.99
2022-12-01T05:28:57.739Z,1019.02
2022-12-01T05:29:57.709Z,1018.97
2022-12-01T05:30:57.684Z,1018.99
2022-12-01T05:31:57.711Z,1018.99
2022-12-01T05:32:57.620Z,1019.03
2022-12-01T05:33:57.591Z,1019.01
2022-12-01T05:34:57.563Z,1019.00
2022-12-01T05:35:57.554Z,1019.05
2022-12-01T05:36:57.502Z,1019.02
2022-12-01T05:37:57.474Z,1019.03
2022-12-01T05:38:57.445Z,1019.03
2022-12-01T05:39:57.506Z,1019.04
2022-12-01T05:40:57.392Z,1019.02
2022-12-01T05:41:57.359Z,1019.06
2022-12-01T05:42:57.330Z,1019.04
2022-12-01T05:43:57.300Z,1019.02
2022-12-01T05:44:57.270Z,1019.03
2022-12-01T05:45:57.446Z,1019.05
2022-12-01T05:46:57.213Z,1019.00
2022-12-01T05:47:57.182Z,1019.01
2022-12-01T05:48:57.155Z,1019.05
2022-12-01T05:50:02.128Z,1019.01
2022-12-01T05:50:57.096Z,1019.03
2022-12-01T05:51:57.086Z,1019.05
2022-12-01T05:52:57.038Z,1019.00
2022-12-01T05:53:57.100Z,1019.09
2022-12-01T05:54:57.026Z,1019.04
2022-12-01T05:55:57.008Z,1019.07
2022-12-01T05:56:56.923Z,1019.03
2022-12-01T05:57:56.951Z,1019.03
2022-12-01T05:58:56.863Z,1019.05
2022-12-01T05:59:56.832Z,1019.03
2022-12-01T06:00:56.805Z,1019.07
2022-12-01T06:01:56.867Z,1019.06
2022-12-01T06:02:56.748Z,1019.10
2022-12-01T06:03:56.757Z,1019.08
2022-12-01T06:04:56.688Z,1019.05
2022-12-01T06:05:56.660Z,1019.07
2022-12-01T06:06:56.633Z,1019.06
2022-12-01T06:07:56.682Z,1019.07
2022-12-01T06:08:56.575Z,1019.06
2022-12-01T06:09:56.541Z,1019.10
2022-12-01T06:10:56.514Z,1019.10
2022-12-01T06:11:56.481Z,1019.13
2022-12-01T06:12:56.455Z,1019.14
2022-12-01T06:13:56.424Z,1019.17
2022-12-01T06:14:56.397Z,1019.16
2022-12-01T06:15:56.366Z,1019.15
2022-12-01T06:16:56.748Z,1019.16
2022-12-01T06:17:56.308Z,1019.11
2022-12-01T06:18:56.280Z,1019.14
2022-12-01T06:19:56.252Z,1019.15
2022-12-01T06:20:56.223Z,1019.15
2022-12-01T06:21:56.251Z,1019.17
2022-12-01T06:22:56.167Z,1019.18
2022-12-01T06:23:56.152Z,1019.19
2022-12-01T06:24:56.106Z,1019.18
2022-12-01T06:25:56.075Z,1019.19
2022-12-01T06:26:56.044Z,1019.20
2022-12-01T06:27:56.015Z,1019.20
2022-12-01T06:28:56.007Z,1019.21
2022-12-01T06:29:55.962Z,1019.24
2022-12-01T06:31:02.594Z,1019.19
2022-12-01T06:31:55.948Z,1019.27
2022-12-01T06:32:55.884Z,1019.21
2022-12-01T06:33:55.841Z,1019.25
2022-12-01T06:34:55.816Z,1019.23
2022-12-01T06:35:55.784Z,1019.24
2022-12-01T06:36:55.757Z,1019.24
2022-12-01T06:37:55.728Z,1019.20
2022-12-01T06:38:55.782Z,1019.23
2022-12-01T06:39:55.690Z,1019.23
2022-12-01T06:40:55.640Z,1019.21
2022-12-01T06:41:55.610Z,1019.27
2022-12-01T06:42:55.582Z,1019.33
2022-12-01T06:43:55.553Z,1019.30
2022-12-01T06:44:55.525Z,1019.32
2022-12-01T06:46:01.200Z,1019.31
2022-12-01T06:46:55.468Z,1019.28
2022-12-01T06:47:55.435Z,1019.30
2022-12-01T06:48:55.412Z,1019.30
2022-12-01T06:49:55.379Z,1019.26
2022-12-01T06:50:55.352Z,1019.29
2022-12-01T06:51:55.322Z,1019.24
2022-12-01T06:52:55.293Z,1019.28
2022-12-01T06:53:55.263Z,1019.33
2022-12-01T06:54:55.237Z,1019.30
2022-12-01T06:55:55.221Z,1019.30
2022-12-01T06:56:55.185Z,1019.36
2022-12-01T06:57:55.155Z,1019.32
2022-12-01T06:58:55.126Z,1019.31
2022-12-01T06:59:55.088Z,1019.30
2022-12-01T07:00:55.110Z,1019.31
2022-12-01T07:01:55.119Z,1019.32
2022-12-01T07:02:55.070Z,1019.31
2022-12-01T07:03:54.972Z,1019.31
2022-12-01T07:04:54.944Z,1019.28
2022-12-01T07:05:54.917Z,1019.27
2022-12-01T07:06:54.888Z,1019.35
2022-12-01T07:07:59.339Z,1019.37
2022-12-01T07:08:54.829Z,1019.37
2022-12-01T07:09:54.803Z,1019.39
2022-12-01T07:10:54.771Z,1019.38
2022-12-01T07:11:54.759Z,1019.43
2022-12-01T07:12:54.715Z,1019.43
2022-12-01T07:13:54.682Z,1019.47
2022-12-01T07:14:54.655Z,1019.44
2022-12-01T07:15:54.628Z,1019.44
2022-12-01T07:16:54.784Z,1019.43
2022-12-01T07:17:54.568Z,1019.48
2022-12-01T07:18:54.547Z,1019.40
2022-12-01T07:19:54.512Z,1019.41
2022-12-01T07:20:54.481Z,1019.44
2022-12-01T07:21:54.450Z,1019.47
2022-12-01T07:22:54.425Z,1019.46
2022-12-01T07:23:54.392Z,1019.42
2022-12-01T07:24:54.365Z,1019.49
2022-12-01T07:25:54.334Z,1019.48
2022-12-01T07:26:54.313Z,1019.45
2022-12-01T07:27:54.296Z,1019.47
2022-12-01T07:28:54.250Z,1019.43
2022-12-01T07:29:54.221Z,1019.42
2022-12-01T07:30:54.226Z,1019.41
2022-12-01T07:31:54.157Z,1019.44
2022-12-01T07:32:54.132Z,1019.44
2022-12-01T07:33:54.101Z,1019.45
2022-12-01T07:34:54.072Z,1019.45
2022-12-01T07:35:54.044Z,1019.42
2022-12-01T07:36:54.013Z,1019.43
2022-12-01T07:37:53.985Z,1019.47
2022-12-01T07:38:53.956Z,1019.44
2022-12-01T07:39:53.927Z,1019.49
2022-12-01T07:40:53.900Z,1019.48
2022-12-01T07:41:53.867Z,1019.47
2022-12-01T07:42:53.839Z,1019.48
2022-12-01T07:43:53.831Z,1019.45
2022-12-01T07:44:53.782Z,1019.49
2022-12-01T07:45:53.866Z,1019.46
2022-12-01T07:46:53.723Z,1019.49
2022-12-01T07:47:53.695Z,1019.47
2022-12-01T07:48:53.665Z,1019.50
2022-12-01T07:49:53.634Z,1019.48
2022-12-01T07:50:53.606Z,1019.58
2022-12-01T07:51:53.573Z,1019.48
2022-12-01T07:52:53.547Z,1019.51
2022-12-01T07:53:53.517Z,1019.56
2022-12-01T07:54:53.489Z,1019.56
2022-12-01T07:55:53.457Z,1019.58
2022-12-01T07:56:53.428Z,1019.56
2022-12-01T07:57:53.398Z,1019.56
2022-12-01T07:58:53.369Z,1019.61
2022-12-01T07:59:53.358Z,1019.60
2022-12-01T08:00:53.315Z,1019.62
2022-12-01T08:01:53.384Z,1019.59
2022-12-01T08:02:53.299Z,1019.63
2022-12-01T08:03:53.222Z,1019.64
2022-12-01T08:04:53.195Z,1019.58
2022-12-01T08:05:53.165Z,1019.60
2022-12-01T08:06:53.138Z,1019.61
2022-12-01T08:07:53.158Z,1019.63
2022-12-01T08:08:53.100Z,1019.62
2022-12-01T08:09:53.049Z,1019.66
2022-12-01T08:10:53.017Z,1019.70
2022-12-01T08:11:52.989Z,1019.68
2022-12-01T08:12:52.960Z,1019.70
2022-12-01T08:13:52.930Z,1019.71
2022-12-01T08:14:52.902Z,1019.69
2022-12-01T08:15:52.936Z,1019.73
2022-12-01T08:16:52.845Z,1019.73
2022-12-01T08:17:52.815Z,1019.70
2022-12-01T08:18:52.787Z,1019.71
2022-12-01T08:19:52.756Z,1019.73
2022-12-01T08:20:52.725Z,1019.70
2022-12-01T08:21:52.696Z,1019.72
2022-12-01T08:22:52.673Z,1019.71
2022-12-01T08:23:52.639Z,1019.73
2022-12-01T08:24:52.612Z,1019.72
2022-12-01T08:25:52.595Z,1019.77
2022-12-01T08:26:52.554Z,1019.71
2022-12-01T08:27:52.523Z,1019.72
2022-12-01T08:28:52.496Z,1019.75
2022-12-01T08:29:52.465Z,1019.73
2022-12-01T08:30:52.473Z,1019.71
2022-12-01T08:31:52.423Z,1019.73
2022-12-01T08:32:52.379Z,1019.70
2022-12-01T08:33:52.350Z,1019.75
2022-12-01T08:34:53.674Z,1019.78
2022-12-01T08:35:52.287Z,1019.78
2022-12-01T08:36:52.262Z,1019.85
2022-12-01T08:37:52.230Z,1019.87
2022-12-01T08:38:52.231Z,1019.90
2022-12-01T08:39:52.284Z,1019.87
2022-12-01T08:40:52.145Z,1019.85
2022-12-01T08:41:52.114Z,1019.88
2022-12-01T08:42:52.090Z,1019.88
2022-12-01T08:44:00.147Z,1019.86
2022-12-01T08:44:52.119Z,1019.90
2022-12-01T08:45:51.999Z,1019.92
2022-12-01T08:46:52.042Z,1019.84
2022-12-01T08:47:51.960Z,1019.91
2022-12-01T08:48:51.910Z,1019.94
2022-12-01T08:49:51.991Z,1019.91
2022-12-01T08:50:51.852Z,1019.93
2022-12-01T08:51:51.824Z,1019.89
2022-12-01T08:52:51.795Z,1019.89
2022-12-01T08:53:51.765Z,1019.86
2022-12-01T08:54:51.738Z,1019.92
2022-12-01T08:55:51.708Z,1019.93
2022-12-01T08:56:51.678Z,1019.92
2022-12-01T08:57:51.651Z,1019.97
2022-12-01T08:58:51.621Z,1019.96
2022-12-01T08:59:51.934Z,1019.97
2022-12-01T09:00:51.564Z,1019.96
2022-12-01T09:01:51.632Z,1019.96
2022-12-01T09:02:51.526Z,1019.96
2022-12-01T09:03:51.496Z,1019.93
2022-12-01T09:04:51.451Z,1019.95
2022-12-01T09:05:51.422Z,1019.97
2022-12-01T09:06:51.390Z,1019.96
2022-12-01T09:07:51.432Z,1019.98
2022-12-01T09:08:51.339Z,1019.99
2022-12-01T09:09:51.518Z,1019.98
2022-12-01T09:10:51.385Z,1020.01
2022-12-01T09:11:51.252Z,1020.01
2022-12-01T09:12:51.220Z,1020.02
2022-12-01T09:13:54.604Z,1020.04
2022-12-01T09:14:51.164Z,1020.06
2022-12-01T09:15:51.151Z,1020.05
2022-12-01T09:16:51.107Z,1020.08
2022-12-01T09:17:51.081Z,1020.02
2022-12-01T09:18:51.049Z,1020.06
2022-12-01T09:19:51.596Z,1020.05
2022-12-01T09:20:50.994Z,1020.06
2022-12-01T09:21:50.965Z,1020.06
2022-12-01T09:22:50.937Z,1020.01
2022-12-01T09:23:50.909Z,1020.04
2022-12-01T09:24:50.878Z,1020.00
2022-12-01T09:25:50.854Z,1020.04
2022-12-01T09:26:50.821Z,1020.05
2022-12-01T09:27:50.795Z,1020.03
2022-12-01T09:28:50.765Z,1020.04
2022-12-01T09:29:50.987Z,1020.05
2022-12-01T09:30:50.707Z,1020.04
2022-12-01T09:31:50.704Z,1020.09
2022-12-01T09:32:50.651Z,1020.08
2022-12-01T09:33:50.622Z,1020.08
2022-12-01T09:34:50.598Z,1020.07
2022-12-01T09:35:50.588Z,1020.05
2022-12-01T09:36:50.536Z,1020.10
2022-12-01T09:37:50.509Z,1020.09
2022-12-01T09:38:50.482Z,1020.05
2022-12-01T09:39:50.742Z,1020.07
2022-12-01T09:40:50.421Z,1020.06
2022-12-01T09:41:50.395Z,1020.07
2022-12-01T09:42:50.365Z,1020.08
2022-12-01T09:43:50.340Z,1020.07
2022-12-01T09:44:50.312Z,1020.09
2022-12-01T09:45:50.284Z,1020.08
2022-12-01T09:46:50.330Z,1020.06
2022-12-01T09:47:50.224Z,1020.09
2022-12-01T09:48:50.192Z,1020.09
2022-12-01T09:49:50.418Z,1020.04
2022-12-01T09:50:50.145Z,1020.06
2022-12-01T09:51:50.128Z,1020.02
2022-12-01T09:52:50.083Z,1020.02
2022-12-01T09:53:50.054Z,1020.05
2022-12-01T09:54:50.028Z,1020.06
2022-12-01T09:55:49.995Z,1020.04
2022-12-01T09:56:49.967Z,1020.07
2022-12-01T09:57:49.938Z,1020.03
2022-12-01T09:58:49.906Z,1020.05
2022-12-01T09:59:50.171Z,1020.07
2022-12-01T10:00:49.911Z,1020.07
2022-12-01T10:01:49.887Z,1020.06
2022-12-01T10:02:49.793Z,1020.03
2022-12-01T10:03:49.767Z,1020.04
2022-12-01T10:04:49.738Z,1020.00
2022-12-01T10:06:18.474Z,1020.02
2022-12-01T10:06:49.677Z,1019.96
2022-12-01T10:07:49.729Z,1020.00
2022-12-01T10:08:49.623Z,1020.01
2022-12-01T10:09:49.834Z,1019.95
2022-12-01T10:10:49.563Z,1019.98
2022-12-01T10:11:49.537Z,1019.94
2022-12-01T10:12:49.507Z,1019.98
2022-12-01T10:13:49.482Z,1019.93
2022-12-01T10:14:49.459Z,1019.93
2022-12-01T10:15:49.422Z,1019.87
2022-12-01T10:16:49.395Z,1019.93
2022-12-01T10:17:49.367Z,1019.89
2022-12-01T10:18:49.337Z,1019.91
2022-12-01T10:19:49.593Z,1019.87
2022-12-01T10:20:49.280Z,1019.88
2022-12-01T10:21:49.256Z,1019.84
2022-12-01T10:22:49.647Z,1019.85
2022-12-01T10:23:49.282Z,1019.84
2022-12-01T10:24:49.192Z,1019.85
2022-12-01T10:25:49.158Z,1019.81
2022-12-01T10:26:49.111Z,1019.80
2022-12-01T10:27:49.142Z,1019.79
2022-12-01T10:28:49.133Z,1019.81
2022-12-01T10:29:49.579Z,1019.77
2022-12-01T10:30:48.997Z,1019.76
2022-12-01T10:31:49.072Z,1019.80
2022-12-01T10:32:49.085Z,1019.76
2022-12-01T10:33:49.036Z,1019.74
2022-12-01T10:34:49.002Z,1019.75
2022-12-01T10:35:48.918Z,1019.78
2022-12-01T10:36:48.965Z,1019.71
2022-12-01T10:37:48.960Z,1019.73
2022-12-01T10:38:48.970Z,1019.75
2022-12-01T10:39:49.288Z,1019.74
2022-12-01T10:40:48.779Z,1019.77
2022-12-01T10:41:48.901Z,1019.74
2022-12-01T10:42:48.771Z,1019.74
2022-12-01T10:43:48.723Z,1019.75
2022-12-01T10:44:48.792Z,1019.72
2022-12-01T10:45:48.791Z,1019.78
2022-12-01T10:46:48.624Z,1019.75
2022-12-01T10:47:48.610Z,1019.78
2022-12-01T10:48:48.505Z,1019.78
2022-12-01T10:49:49.001Z,1019.79
2022-12-01T10:50:48.452Z,1019.77
2022-12-01T10:51:48.421Z,1019.81
2022-12-01T10:52:48.386Z,1019.79
2022-12-01T10:53:48.363Z,1019.82
2022-12-01T10:54:48.392Z,1019.82
2022-12-01T10:55:48.308Z,1019.84
2022-12-01T10:56:48.305Z,1019.84
2022-12-01T10:57:48.234Z,1019.83
2022-12-01T10:58:48.203Z,1019.87
2022-12-01T10:59:48.478Z,1019.84
2022-12-01T11:01:03.791Z,1019.81
2022-12-01T11:01:48.305Z,1019.83
2022-12-01T11:02:48.328Z,1019.83
2022-12-01T11:03:48.127Z,1019.79
2022-12-01T11:04:48.035Z,1019.84
2022-12-01T11:05:48.008Z,1019.79
2022-12-01T11:06:47.981Z,1019.74
2022-12-01T11:07:48.062Z,1019.78
2022-12-01T11:08:47.930Z,1019.75
2022-12-01T11:09:48.208Z,1019.75
2022-12-01T11:10:47.867Z,1019.71
2022-12-01T11:11:47.867Z,1019.69
2022-12-01T11:12:47.972Z,1019.73
2022-12-01T11:13:48.823Z,1019.71
2022-12-01T11:14:47.835Z,1019.77
2022-12-01T11:15:47.742Z,1019.74
2022-12-01T11:16:47.870Z,1019.71
2022-12-01T11:17:47.749Z,1019.69
2022-12-01T11:18:47.682Z,1019.71
2022-12-01T11:19:47.966Z,1019.71
2022-12-01T11:20:47.682Z,1019.70
2022-12-01T11:21:47.557Z,1019.69
2022-12-01T11:22:47.563Z,1019.69
2022-12-01T11:23:47.500Z,1019.71
2022-12-01T11:24:47.467Z,1019.68
2022-12-01T11:25:47.443Z,1019.65
2022-12-01T11:26:47.410Z,1019.65
2022-12-01T11:27:47.402Z,1019.65
2022-12-01T11:28:47.352Z,1019.65
2022-12-01T11:29:47.597Z,1019.65
2022-12-01T11:30:49.283Z,1019.68
2022-12-01T11:31:47.390Z,1019.71
2022-12-01T11:32:47.240Z,1019.73
2022-12-01T11:33:47.212Z,1019.68
2022-12-01T11:34:47.463Z,1019.72
2022-12-01T11:35:47.159Z,1019.72
2022-12-01T11:36:47.128Z,1019.70
2022-12-01T11:38:13.221Z,1019.73
2022-12-01T11:38:47.071Z,1019.74
2022-12-01T11:39:47.599Z,1019.70
2022-12-01T11:40:47.031Z,1019.71
2022-12-01T11:41:46.985Z,1019.68
2022-12-01T11:42:46.959Z,1019.72
2022-12-01T11:43:56.707Z,1019.68
2022-12-01T11:44:51.820Z,1019.67
2022-12-01T11:45:46.927Z,1019.67
2022-12-01T11:46:55.830Z,1019.68
2022-12-01T11:47:46.814Z,1019.69
2022-12-01T11:48:46.785Z,1019.71
2022-12-01T11:49:47.454Z,1019.67
2022-12-01T11:50:46.728Z,1019.69
2022-12-01T11:51:46.701Z,1019.67
2022-12-01T11:52:46.672Z,1019.67
2022-12-01T11:53:46.649Z,1019.71
2022-12-01T11:54:46.615Z,1019.72
2022-12-01T11:55:46.587Z,1019.68
2022-12-01T11:56:46.734Z,1019.68
2022-12-01T11:57:46.532Z,1019.72
2022-12-01T11:58:46.601Z,1019.71
2022-12-01T11:59:46.503Z,1019.71
2022-12-01T12:00:46.445Z,1019.71
2022-12-01T12:01:46.419Z,1019.71
2022-12-01T12:02:46.451Z,1019.72
2022-12-01T12:03:46.424Z,1019.72
2022-12-01T12:04:46.338Z,1019.64